Terminal Aerodrome Forecast
Issued by NWS Houston/Galveston TX

Home | Current Version | Previous Version | Text Only | Print | Product List | Glossary On
Versions: 1 2 3 4 5 6 7 8 9 10 11 12 13 14 15 16 17 18 19 20 21 22 23 24 25 26 27 28 29 30 31 32 33 34 35 36 37 38 39 40 41 42 43 44 45 46 47 48 49 50
000
FTUS44 KHGX 161120
TAFHOU
TAF
KHOU 161120Z 1612/1712 12004KT P6SM VCSH SCT014 BKN040
      TEMPO 1614/1617 -TSRA BKN025CB
     FM161700 18014KT P6SM BKN025
     FM161900 17015KT P6SM SCT020 BKN035
     FM170300 15005KT 3SM BR BKN009
     FM170700 14004KT 2SM -DZ BR MIFG BKN005=

USA.gov is the U.S. government's official web portal to all federal, state and local government web resources and services.